Time;durP1;ratioP1;P1;durP2;ratioP2;P2;SDS_P1;SDS_P2;PMS_P1;PMS_P2;Temp;Humidity;BMP_temperature;BMP_pressure;BME280_temperature;BME280_humidity;BME280_pressure;Samples;Min_cycle;Max_cycle;Signal;HPM_P1;HPM_P2
2023/03/21 00:00:20;;;;;;;;;;;3.90;99.90;;;;;;5036474;28;19913;-71
2023/03/21 00:02:46;;;;;;;;;;;3.90;99.90;;;;;;5036361;28;20008;-71
2023/03/21 00:05:11;;;;;;;;;;;3.80;99.90;;;;;;5035478;28;19948;-71
2023/03/21 00:07:37;;;;;;;;;;;3.90;99.90;;;;;;5002604;28;19920;-71
2023/03/21 00:10:03;;;;;;;;;;;3.80;99.90;;;;;;5018683;28;19920;-71
2023/03/21 00:12:31;;;;;;;;;;;3.70;99.90;;;;;;5018140;28;19955;-71
2023/03/21 00:15:04;;;;;;;;;;;3.80;99.90;;;;;;5018283;28;19920;-71
2023/03/21 00:17:31;;;;;;;;;;;3.80;99.90;;;;;;5018026;28;20296;-71
2023/03/21 00:20:04;;;;;;;;;;;3.70;99.90;;;;;;5017741;28;19915;-71
2023/03/21 00:22:29;;;;;;;;;;;3.70;99.90;;;;;;5018040;28;19917;-71
2023/03/21 00:24:55;;;;;;;;;;;3.80;99.90;;;;;;5017693;28;19923;-71
2023/03/21 00:27:21;;;;;;;;;;;3.80;99.90;;;;;;5035570;28;19961;-71
2023/03/21 00:29:50;;;;;;;;;;;3.90;99.90;;;;;;5018437;28;20413;-71
2023/03/21 00:32:16;;;;;;;;;;;3.90;99.90;;;;;;5035595;28;19909;-71
2023/03/21 00:34:41;;;;;;;;;;;3.90;99.90;;;;;;5034997;28;19910;-71
2023/03/21 00:37:07;;;;;;;;;;;3.90;99.90;;;;;;5035354;28;20404;-71
2023/03/21 00:39:34;;;;;;;;;;;3.90;99.90;;;;;;5017820;28;19914;-71
2023/03/21 00:41:59;;;;;;;;;;;3.90;99.90;;;;;;5017868;28;19924;-71
2023/03/21 00:44:25;;;;;;;;;;;4.00;99.90;;;;;;5035557;28;19914;-71
2023/03/21 00:46:51;;;;;;;;;;;4.00;99.90;;;;;;5035389;28;19909;-71
2023/03/21 00:49:16;;;;;;;;;;;4.00;99.90;;;;;;5035300;28;19937;-71
2023/03/21 00:51:42;;;;;;;;;;;4.00;99.90;;;;;;5035864;28;19920;-71
2023/03/21 00:54:08;;;;;;;;;;;4.00;99.90;;;;;;5035607;28;19909;-71
2023/03/21 00:56:33;;;;;;;;;;;4.00;99.90;;;;;;5035415;28;19924;-71
2023/03/21 00:58:59;;;;;;;;;;;4.00;99.90;;;;;;5035203;28;19971;-71
2023/03/21 01:01:30;;;;;;;;;;;4.00;99.90;;;;;;5017821;28;20389;-71
2023/03/21 01:04:04;;;;;;;;;;;4.00;99.90;;;;;;5035496;28;19983;-71
2023/03/21 01:06:38;;;;;;;;;;;4.00;99.90;;;;;;5017225;28;19975;-71
2023/03/21 01:09:04;;;;;;;;;;;4.00;99.90;;;;;;5017563;28;19909;-71
2023/03/21 01:11:29;;;;;;;;;;;4.00;99.90;;;;;;5035237;28;19939;-71
2023/03/21 01:13:56;;;;;;;;;;;4.10;99.90;;;;;;5035040;28;19999;-71
2023/03/21 01:16:21;;;;;;;;;;;4.00;99.90;;;;;;5034998;28;20369;-71
2023/03/21 01:18:47;;;;;;;;;;;4.10;99.90;;;;;;5034944;28;19913;-71
2023/03/21 01:21:13;;;;;;;;;;;4.10;99.90;;;;;;5034541;28;19919;-71
2023/03/21 01:23:39;;;;;;;;;;;4.10;99.90;;;;;;5034749;28;19936;-71
2023/03/21 01:26:06;;;;;;;;;;;4.10;99.90;;;;;;5034444;28;20341;-71
2023/03/21 01:28:32;;;;;;;;;;;4.00;99.90;;;;;;5015075;28;19996;-71
2023/03/21 01:30:59;;;;;;;;;;;4.00;99.90;;;;;;5014996;28;19952;-71
2023/03/21 01:33:24;;;;;;;;;;;4.00;99.90;;;;;;5016125;28;19910;-72
2023/03/21 01:35:50;;;;;;;;;;;4.00;99.90;;;;;;5034914;28;19924;-71
2023/03/21 01:38:16;;;;;;;;;;;4.00;99.90;;;;;;5016259;28;19945;-71
2023/03/21 01:40:42;;;;;;;;;;;4.00;99.90;;;;;;5034950;28;19920;-71
2023/03/21 01:43:28;;;;;;;;;;;4.00;99.90;;;;;;5034637;28;19913;-71
2023/03/21 01:46:19;;;;;;;;;;;4.00;99.90;;;;;;5033200;28;21706;-74
2023/03/21 01:48:47;;;;;;;;;;;4.10;99.90;;;;;;5035483;28;19916;-71
2023/03/21 01:51:12;;;;;;;;;;;4.10;99.90;;;;;;5034937;28;20008;-71
2023/03/21 01:53:39;;;;;;;;;;;4.10;99.90;;;;;;5017062;28;19987;-71
2023/03/21 01:56:11;;;;;;;;;;;4.10;99.90;;;;;;5035003;28;19917;-71
2023/03/21 01:58:37;;;;;;;;;;;4.10;99.90;;;;;;5017218;28;19909;-71
2023/03/21 02:01:03;;;;;;;;;;;4.10;99.90;;;;;;5034672;28;19909;-72
2023/03/21 02:03:36;;;;;;;;;;;4.10;99.90;;;;;;5034738;28;20415;-72
2023/03/21 02:06:08;;;;;;;;;;;4.10;99.90;;;;;;5034819;28;19905;-71
2023/03/21 02:08:34;;;;;;;;;;;4.10;99.90;;;;;;5017288;28;19920;-71
2023/03/21 02:10:59;;;;;;;;;;;4.10;99.90;;;;;;5017190;28;19980;-71
2023/03/21 02:13:25;;;;;;;;;;;4.20;99.90;;;;;;5034167;28;20008;-71
2023/03/21 02:15:57;;;;;;;;;;;4.10;99.90;;;;;;5016387;28;19967;-71
2023/03/21 02:18:41;;;;;;;;;;;4.10;99.90;;;;;;5015796;28;20004;-71
2023/03/21 02:21:30;;;;;;;;;;;4.10;99.90;;;;;;5000983;28;19916;-71
2023/03/21 02:24:02;;;;;;;;;;;4.10;99.90;;;;;;5010232;28;19917;-71
2023/03/21 02:26:35;;;;;;;;;;;4.20;99.90;;;;;;5018310;28;19972;-71
2023/03/21 02:29:03;;;;;;;;;;;4.20;99.90;;;;;;5024964;28;20028;-73
2023/03/21 02:31:39;;;;;;;;;;;4.10;99.90;;;;;;5036415;28;19913;-73
2023/03/21 02:34:14;;;;;;;;;;;4.20;99.90;;;;;;5037037;28;19916;-73
2023/03/21 02:36:48;;;;;;;;;;;4.20;99.90;;;;;;5036985;28;19917;-73
2023/03/21 02:39:18;;;;;;;;;;;4.20;99.90;;;;;;5036715;28;19909;-73
2023/03/21 02:41:43;;;;;;;;;;;4.20;99.90;;;;;;5037236;28;19963;-73
2023/03/21 02:44:18;;;;;;;;;;;4.20;99.90;;;;;;5036798;28;19913;-73
2023/03/21 02:46:49;;;;;;;;;;;4.20;99.90;;;;;;5035633;28;20419;-73
2023/03/21 02:49:22;;;;;;;;;;;4.20;99.90;;;;;;5036516;28;20024;-73
2023/03/21 02:51:48;;;;;;;;;;;4.20;99.90;;;;;;5036448;28;19917;-73
2023/03/21 02:54:16;;;;;;;;;;;4.20;99.90;;;;;;5036361;28;19944;-73
2023/03/21 02:56:42;;;;;;;;;;;4.20;99.90;;;;;;5036316;28;19920;-73
2023/03/21 02:59:09;;;;;;;;;;;4.20;99.90;;;;;;5036446;28;20481;-73
2023/03/21 03:01:34;;;;;;;;;;;4.20;99.90;;;;;;5036013;28;19920;-73
2023/03/21 03:04:00;;;;;;;;;;;4.20;99.90;;;;;;5036206;28;19913;-73
2023/03/21 03:06:43;;;;;;;;;;;4.30;99.90;;;;;;5036223;28;19916;-73
2023/03/21 03:09:22;;;;;;;;;;;4.30;99.90;;;;;;5036403;28;19910;-73
2023/03/21 03:11:53;;;;;;;;;;;4.30;99.90;;;;;;5036696;28;19909;-73
2023/03/21 03:14:41;;;;;;;;;;;4.30;99.90;;;;;;5036167;28;19910;-73
2023/03/21 03:17:16;;;;;;;;;;;4.30;99.90;;;;;;5035773;28;19913;-73
2023/03/21 03:19:53;;;;;;;;;;;4.30;99.90;;;;;;5035948;28;19910;-73
2023/03/21 03:22:23;;;;;;;;;;;4.30;99.90;;;;;;5035795;28;19909;-73
2023/03/21 03:24:57;;;;;;;;;;;4.30;99.90;;;;;;5035466;28;19917;-73
2023/03/21 03:27:26;;;;;;;;;;;4.30;99.90;;;;;;5035716;28;19952;-73
2023/03/21 03:29:52;;;;;;;;;;;4.30;99.90;;;;;;5035394;28;19909;-74
2023/03/21 03:32:29;;;;;;;;;;;4.30;99.90;;;;;;5035574;28;19913;-74
2023/03/21 03:34:55;;;;;;;;;;;4.30;99.90;;;;;;5035809;28;20284;-73
2023/03/21 03:37:25;;;;;;;;;;;4.30;99.90;;;;;;5035569;28;20387;-74
2023/03/21 03:39:56;;;;;;;;;;;4.30;99.90;;;;;;5035850;28;19910;-73
2023/03/21 03:42:30;;;;;;;;;;;4.30;99.90;;;;;;5035836;28;20324;-73
2023/03/21 03:44:56;;;;;;;;;;;4.30;99.90;;;;;;5035399;28;20365;-74
2023/03/21 03:47:28;;;;;;;;;;;4.30;99.90;;;;;;5024205;28;19915;-73
2023/03/21 03:49:59;;;;;;;;;;;4.30;99.90;;;;;;5016141;28;19910;-74
2023/03/21 03:52:36;;;;;;;;;;;4.30;99.90;;;;;;5015860;28;19910;-73
2023/03/21 03:55:02;;;;;;;;;;;4.20;99.90;;;;;;5015431;28;19909;-73
2023/03/21 03:57:28;;;;;;;;;;;4.20;99.90;;;;;;5015372;28;20289;-73
2023/03/21 03:59:54;;;;;;;;;;;4.20;99.90;;;;;;5015420;28;19959;-73
2023/03/21 04:02:19;;;;;;;;;;;4.20;99.90;;;;;;5029839;28;20385;-73
2023/03/21 04:04:46;;;;;;;;;;;4.20;99.90;;;;;;5035597;28;20369;-73
2023/03/21 04:07:12;;;;;;;;;;;4.30;99.90;;;;;;5035066;28;20289;-73
2023/03/21 04:09:37;;;;;;;;;;;4.30;99.90;;;;;;5035253;28;19909;-73
2023/03/21 04:12:03;;;;;;;;;;;4.30;99.90;;;;;;5035546;28;19909;-73
2023/03/21 04:14:29;;;;;;;;;;;4.30;99.90;;;;;;5035092;28;19909;-73
2023/03/21 04:16:54;;;;;;;;;;;4.30;99.90;;;;;;5034355;28;20389;-73
2023/03/21 04:19:20;;;;;;;;;;;4.30;99.90;;;;;;5034770;28;19916;-73
2023/03/21 04:21:46;;;;;;;;;;;4.30;99.90;;;;;;5033838;28;19955;-73
2023/03/21 04:24:12;;;;;;;;;;;4.20;99.90;;;;;;5034848;28;19933;-73
2023/03/21 04:26:38;;;;;;;;;;;4.30;99.90;;;;;;5034724;28;19909;-73
2023/03/21 04:29:04;;;;;;;;;;;4.20;99.90;;;;;;5017347;28;20431;-74
2023/03/21 04:31:32;;;;;;;;;;;4.30;99.90;;;;;;5034378;28;19913;-73
2023/03/21 04:33:59;;;;;;;;;;;4.30;99.90;;;;;;5034759;28;19909;-73
2023/03/21 04:36:37;;;;;;;;;;;4.30;99.90;;;;;;5034289;28;19963;-73
2023/03/21 04:39:11;;;;;;;;;;;4.30;99.90;;;;;;5034486;28;19910;-73
2023/03/21 04:41:39;;;;;;;;;;;4.30;99.90;;;;;;5034360;28;19956;-73
2023/03/21 04:44:05;;;;;;;;;;;4.30;99.90;;;;;;5034471;28;19940;-73
2023/03/21 04:46:32;;;;;;;;;;;4.30;99.90;;;;;;5033174;28;19913;-73
2023/03/21 04:48:58;;;;;;;;;;;4.30;99.90;;;;;;5034314;28;19909;-73
2023/03/21 04:51:23;;;;;;;;;;;4.30;99.90;;;;;;5034289;28;19920;-74
2023/03/21 04:53:51;;;;;;;;;;;4.30;99.90;;;;;;5033885;28;20340;-73
2023/03/21 04:56:17;;;;;;;;;;;4.30;99.90;;;;;;5034056;28;19921;-73
2023/03/21 04:58:42;;;;;;;;;;;4.30;99.90;;;;;;5034073;28;19920;-73
2023/03/21 05:01:08;;;;;;;;;;;4.30;99.90;;;;;;5033606;28;20380;-72
2023/03/21 05:03:38;;;;;;;;;;;4.30;99.90;;;;;;5033960;28;19982;-73
2023/03/21 05:06:07;;;;;;;;;;;4.30;99.90;;;;;;5033990;28;19913;-73
2023/03/21 05:08:34;;;;;;;;;;;4.30;99.90;;;;;;5034031;28;19916;-73
2023/03/21 05:11:00;;;;;;;;;;;4.30;99.90;;;;;;5034019;28;19995;-73
2023/03/21 05:13:26;;;;;;;;;;;4.30;99.90;;;;;;5033907;28;20004;-73
2023/03/21 05:15:51;;;;;;;;;;;4.30;99.90;;;;;;5033367;28;19913;-73
2023/03/21 05:18:23;;;;;;;;;;;4.40;99.90;;;;;;5033573;28;19959;-73
2023/03/21 05:20:53;;;;;;;;;;;4.40;99.90;;;;;;5034201;28;20357;-75
2023/03/21 05:23:19;;;;;;;;;;;4.40;99.90;;;;;;5033864;28;19913;-74
2023/03/21 05:25:44;;;;;;;;;;;4.40;99.90;;;;;;5034388;28;19928;-73
2023/03/21 05:28:10;;;;;;;;;;;4.40;99.90;;;;;;5034366;28;19920;-73
2023/03/21 05:30:35;;;;;;;;;;;4.40;99.90;;;;;;5033924;28;19913;-73
2023/03/21 05:33:01;;;;;;;;;;;4.30;99.90;;;;;;5033302;28;19913;-73
2023/03/21 05:35:26;;;;;;;;;;;4.40;99.90;;;;;;5033688;28;19913;-73
2023/03/21 05:37:52;;;;;;;;;;;4.30;99.90;;;;;;5034148;28;19924;-72
2023/03/21 05:40:18;;;;;;;;;;;4.40;99.90;;;;;;5016028;28;20471;-73
2023/03/21 05:42:44;;;;;;;;;;;4.40;99.90;;;;;;5014191;28;19926;-73
2023/03/21 05:45:10;;;;;;;;;;;4.40;99.90;;;;;;5031480;28;19924;-72
2023/03/21 05:47:35;;;;;;;;;;;4.40;99.90;;;;;;5031160;28;19909;-72
2023/03/21 05:50:01;;;;;;;;;;;4.40;99.90;;;;;;5013901;28;19913;-73
2023/03/21 05:52:28;;;;;;;;;;;4.40;99.90;;;;;;5033321;28;19913;-73
2023/03/21 05:54:54;;;;;;;;;;;4.40;99.90;;;;;;5035545;28;19920;-73
2023/03/21 05:57:19;;;;;;;;;;;4.40;99.90;;;;;;5035527;28;20023;-73
2023/03/21 05:59:45;;;;;;;;;;;4.40;99.90;;;;;;5036365;28;19913;-73
2023/03/21 06:02:11;;;;;;;;;;;4.40;99.90;;;;;;5037012;28;19967;-73
2023/03/21 06:04:36;;;;;;;;;;;4.40;99.90;;;;;;5037311;28;19917;-73
2023/03/21 06:07:02;;;;;;;;;;;4.50;99.90;;;;;;5037560;28;20369;-73
2023/03/21 06:09:28;;;;;;;;;;;4.50;99.90;;;;;;5037585;28;19909;-74
2023/03/21 06:11:54;;;;;;;;;;;4.50;99.90;;;;;;5039221;28;19924;-78
2023/03/21 06:14:20;;;;;;;;;;;4.50;99.90;;;;;;5039680;28;19913;-72
2023/03/21 06:16:46;;;;;;;;;;;4.50;99.90;;;;;;5018898;28;19978;-73
2023/03/21 06:19:11;;;;;;;;;;;4.50;99.90;;;;;;5037077;28;20115;-73
2023/03/21 06:21:37;;;;;;;;;;;4.50;99.90;;;;;;5037642;28;19909;-73
2023/03/21 06:24:02;;;;;;;;;;;4.50;99.90;;;;;;5036297;28;19928;-73
2023/03/21 06:26:28;;;;;;;;;;;4.50;99.90;;;;;;5037265;28;20389;-73
2023/03/21 06:28:54;;;;;;;;;;;4.60;99.90;;;;;;5036936;28;20384;-73
2023/03/21 06:31:21;;;;;;;;;;;4.60;99.90;;;;;;5036907;28;19913;-73
2023/03/21 06:33:47;;;;;;;;;;;4.70;99.90;;;;;;5036631;28;19920;-73
2023/03/21 06:36:12;;;;;;;;;;;4.70;99.90;;;;;;5037008;28;20011;-73
2023/03/21 06:38:38;;;;;;;;;;;4.70;99.90;;;;;;5036731;28;19919;-73
2023/03/21 06:41:04;;;;;;;;;;;4.70;99.90;;;;;;5037011;28;19913;-73
2023/03/21 06:43:30;;;;;;;;;;;4.70;99.90;;;;;;5036679;28;20285;-72
2023/03/21 06:45:56;;;;;;;;;;;4.80;99.90;;;;;;5036655;28;19914;-71
2023/03/21 06:48:22;;;;;;;;;;;4.80;99.90;;;;;;5035381;28;19951;-71
2023/03/21 06:50:51;;;;;;;;;;;4.80;99.90;;;;;;5018897;28;20281;-71
2023/03/21 06:53:17;;;;;;;;;;;4.90;99.90;;;;;;5002400;28;20404;-72
2023/03/21 06:55:47;;;;;;;;;;;4.90;99.90;;;;;;5037001;28;19909;-71
2023/03/21 06:58:13;;;;;;;;;;;4.90;99.90;;;;;;5035570;28;19910;-71
2023/03/21 07:00:38;;;;;;;;;;;5.00;99.90;;;;;;5036264;28;19913;-72
2023/03/21 07:03:04;;;;;;;;;;;5.00;99.90;;;;;;5035731;28;19920;-71
2023/03/21 07:05:29;;;;;;;;;;;5.00;99.90;;;;;;5034641;28;20000;-71
2023/03/21 07:07:55;;;;;;;;;;;5.10;99.90;;;;;;5036335;28;19913;-72
2023/03/21 07:10:20;;;;;;;;;;;5.10;99.90;;;;;;5036504;28;19913;-72
2023/03/21 07:12:46;;;;;;;;;;;5.10;99.90;;;;;;5036138;28;19913;-71
2023/03/21 07:15:12;;;;;;;;;;;5.20;99.90;;;;;;5036356;28;20417;-72
2023/03/21 07:17:37;;;;;;;;;;;5.20;99.90;;;;;;5017797;28;19923;-72
2023/03/21 07:20:07;;;;;;;;;;;5.30;99.90;;;;;;5035297;28;19949;-71
2023/03/21 07:22:32;;;;;;;;;;;5.40;99.90;;;;;;5018165;28;19910;-72
2023/03/21 07:24:58;;;;;;;;;;;5.40;99.90;;;;;;5035737;28;20297;-71
2023/03/21 07:27:24;;;;;;;;;;;5.50;99.90;;;;;;5018459;28;19909;-72
2023/03/21 07:29:49;;;;;;;;;;;5.60;99.90;;;;;;5035855;28;19971;-72
2023/03/21 07:32:15;;;;;;;;;;;5.60;99.90;;;;;;5035673;28;20000;-71
2023/03/21 07:34:40;;;;;;;;;;;5.70;99.90;;;;;;5018612;28;20377;-72
2023/03/21 07:37:06;;;;;;;;;;;5.80;99.90;;;;;;5035515;28;19968;-72
2023/03/21 07:39:33;;;;;;;;;;;5.80;99.90;;;;;;5036184;28;19913;-72
2023/03/21 07:41:59;;;;;;;;;;;5.90;99.90;;;;;;5035196;28;20308;-71
2023/03/21 07:44:24;;;;;;;;;;;5.90;99.90;;;;;;5036013;28;19914;-71
2023/03/21 07:46:50;;;;;;;;;;;6.00;99.90;;;;;;5034664;28;19913;-71
2023/03/21 07:49:16;;;;;;;;;;;6.10;99.90;;;;;;5035773;28;19920;-71
2023/03/21 07:51:41;;;;;;;;;;;6.20;99.90;;;;;;5035958;28;19916;-72
2023/03/21 07:54:07;;;;;;;;;;;6.20;99.90;;;;;;5035310;28;19913;-71
2023/03/21 07:56:32;;;;;;;;;;;6.30;99.90;;;;;;5035257;28;19956;-71
2023/03/21 07:58:58;;;;;;;;;;;6.40;99.90;;;;;;5035334;28;19940;-72
2023/03/21 08:01:24;;;;;;;;;;;6.50;99.90;;;;;;5035048;28;19914;-71
2023/03/21 08:03:52;;;;;;;;;;;6.60;99.90;;;;;;5034829;28;19984;-71
2023/03/21 08:06:21;;;;;;;;;;;6.70;99.90;;;;;;5035156;28;19913;-72
2023/03/21 08:08:47;;;;;;;;;;;6.80;99.90;;;;;;5035612;28;19956;-72
2023/03/21 08:11:13;;;;;;;;;;;6.90;99.90;;;;;;5035051;28;19917;-72
2023/03/21 08:13:39;;;;;;;;;;;7.00;99.90;;;;;;5034892;28;19913;-72
2023/03/21 08:16:05;;;;;;;;;;;7.00;99.90;;;;;;5033835;28;19926;-72
2023/03/21 08:18:30;;;;;;;;;;;7.00;99.90;;;;;;5034449;28;19919;-72
2023/03/21 08:20:56;;;;;;;;;;;7.10;99.90;;;;;;5034801;28;19932;-72
2023/03/21 08:23:23;;;;;;;;;;;7.20;99.90;;;;;;5034698;28;19917;-72
2023/03/21 08:25:55;;;;;;;;;;;7.20;99.90;;;;;;5034786;28;19924;-72
2023/03/21 08:28:22;;;;;;;;;;;7.30;99.90;;;;;;5035418;28;19914;-72
2023/03/21 08:30:48;;;;;;;;;;;7.40;99.90;;;;;;5034607;28;19916;-72
2023/03/21 08:33:13;;;;;;;;;;;7.40;99.90;;;;;;5034158;28;19909;-72
2023/03/21 08:35:39;;;;;;;;;;;7.40;99.90;;;;;;5033966;28;19910;-72
2023/03/21 08:38:05;;;;;;;;;;;7.50;99.90;;;;;;5034465;28;19960;-72
2023/03/21 08:40:31;;;;;;;;;;;7.50;99.90;;;;;;5034556;28;19913;-72
2023/03/21 08:42:56;;;;;;;;;;;7.60;99.90;;;;;;5034443;28;19924;-72
2023/03/21 08:45:22;;;;;;;;;;;7.70;99.90;;;;;;5016932;28;19909;-72
2023/03/21 08:47:48;;;;;;;;;;;7.70;99.90;;;;;;5033986;28;19957;-72
2023/03/21 08:50:15;;;;;;;;;;;7.80;99.90;;;;;;5034590;28;19913;-72
2023/03/21 08:52:41;;;;;;;;;;;7.90;99.90;;;;;;5034321;28;19920;-72
2023/03/21 08:55:06;;;;;;;;;;;8.00;99.90;;;;;;5034221;28;20273;-72
2023/03/21 08:57:32;;;;;;;;;;;8.10;99.90;;;;;;5033261;28;19924;-72
2023/03/21 08:59:58;;;;;;;;;;;8.10;99.90;;;;;;5034192;28;19970;-72
2023/03/21 09:02:23;;;;;;;;;;;8.20;99.90;;;;;;5033953;28;19913;-72
2023/03/21 09:04:51;;;;;;;;;;;8.20;99.90;;;;;;5034064;28;19909;-72
2023/03/21 09:07:17;;;;;;;;;;;8.30;99.90;;;;;;5034083;28;19917;-72
2023/03/21 09:09:42;;;;;;;;;;;8.40;99.90;;;;;;5016433;28;19913;-72
2023/03/21 09:12:08;;;;;;;;;;;8.40;99.90;;;;;;5034057;28;19913;-72
2023/03/21 09:14:34;;;;;;;;;;;8.50;99.90;;;;;;5033920;28;19920;-72
2023/03/21 09:17:00;;;;;;;;;;;8.60;99.90;;;;;;5033648;28;20348;-72
2023/03/21 09:19:26;;;;;;;;;;;8.70;99.90;;;;;;5034197;28;19909;-72
2023/03/21 09:21:52;;;;;;;;;;;8.80;99.90;;;;;;5034474;28;19920;-72
2023/03/21 09:24:18;;;;;;;;;;;8.90;99.90;;;;;;5033647;28;19917;-72
2023/03/21 09:26:44;;;;;;;;;;;9.00;99.90;;;;;;5033293;28;20289;-72
2023/03/21 09:29:10;;;;;;;;;;;9.20;99.90;;;;;;5033897;28;19917;-72
2023/03/21 09:31:35;;;;;;;;;;;9.30;99.90;;;;;;5033782;28;19917;-72
2023/03/21 09:34:01;;;;;;;;;;;9.40;99.90;;;;;;5033465;28;19913;-72
2023/03/21 09:36:27;;;;;;;;;;;9.50;99.90;;;;;;5015901;28;19921;-72
2023/03/21 09:38:53;;;;;;;;;;;9.60;99.90;;;;;;5033868;28;19921;-72
2023/03/21 09:41:36;;;;;;;;;;;9.80;99.90;;;;;;5033609;28;19909;-73
2023/03/21 09:44:02;;;;;;;;;;;9.90;99.90;;;;;;5034133;28;20328;-73
2023/03/21 09:46:34;;;;;;;;;;;10.00;99.90;;;;;;5032951;28;20281;-72
2023/03/21 09:49:09;;;;;;;;;;;10.10;99.90;;;;;;5033537;28;20352;-73
2023/03/21 09:51:47;;;;;;;;;;;10.20;99.90;;;;;;5033982;28;19910;-73
2023/03/21 09:54:27;;;;;;;;;;;10.30;99.90;;;;;;5033863;28;19996;-73
2023/03/21 09:56:55;;;;;;;;;;;10.40;99.90;;;;;;5033813;28;19920;-73
2023/03/21 09:59:42;;;;;;;;;;;10.40;99.90;;;;;;5033814;28;19960;-73
2023/03/21 10:02:31;;;;;;;;;;;10.50;99.90;;;;;;5033284;28;20373;-73
2023/03/21 10:04:59;;;;;;;;;;;10.50;99.90;;;;;;5033571;28;19916;-73
2023/03/21 10:07:29;;;;;;;;;;;10.60;99.90;;;;;;5034082;28;19916;-73
2023/03/21 10:09:57;;;;;;;;;;;10.70;99.90;;;;;;5033754;28;19913;-73
2023/03/21 10:12:24;;;;;;;;;;;10.80;99.90;;;;;;5033659;28;19916;-73
2023/03/21 10:14:56;;;;;;;;;;;10.80;99.90;;;;;;5033335;28;19975;-73
2023/03/21 10:17:27;;;;;;;;;;;10.90;99.90;;;;;;5032972;28;19913;-72
2023/03/21 10:19:55;;;;;;;;;;;10.90;99.90;;;;;;5015677;28;19909;-73
2023/03/21 10:22:21;;;;;;;;;;;10.90;99.90;;;;;;5033334;28;19909;-73
2023/03/21 10:24:46;;;;;;;;;;;11.00;99.90;;;;;;5033183;28;19999;-73
2023/03/21 10:27:13;;;;;;;;;;;11.00;99.90;;;;;;5033611;28;19909;-73
2023/03/21 10:29:42;;;;;;;;;;;11.10;99.90;;;;;;5032702;28;20544;-73
2023/03/21 10:32:12;;;;;;;;;;;11.20;99.90;;;;;;5033060;28;20373;-73
2023/03/21 10:34:49;;;;;;;;;;;11.20;99.90;;;;;;5033482;28;19960;-73
2023/03/21 10:37:15;;;;;;;;;;;11.30;99.90;;;;;;5033513;28;19917;-73
2023/03/21 10:39:51;;;;;;;;;;;11.40;99.90;;;;;;5035643;28;19920;-73
2023/03/21 10:42:28;;;;;;;;;;;11.40;99.90;;;;;;5036012;28;19916;-73
2023/03/21 10:44:56;;;;;;;;;;;11.50;99.90;;;;;;5018935;28;19910;-73
2023/03/21 10:47:26;;;;;;;;;;;11.60;99.90;;;;;;5035661;28;20003;-73
2023/03/21 10:49:52;;;;;;;;;;;11.70;99.90;;;;;;5036833;28;19916;-73
2023/03/21 10:52:20;;;;;;;;;;;11.80;99.90;;;;;;5036871;28;19964;-73
2023/03/21 10:54:47;;;;;;;;;;;11.90;99.90;;;;;;5035688;28;19916;-73
2023/03/21 10:57:12;;;;;;;;;;;12.00;99.90;;;;;;5036380;28;19917;-73
2023/03/21 10:59:40;;;;;;;;;;;12.10;99.90;;;;;;5036419;28;19916;-73
2023/03/21 11:02:13;;;;;;;;;;;12.30;99.90;;;;;;5036302;28;20419;-73
2023/03/21 11:04:42;;;;;;;;;;;12.30;99.90;;;;;;5036522;28;19973;-73
2023/03/21 11:07:13;;;;;;;;;;;12.40;99.90;;;;;;5036358;28;19996;-73
2023/03/21 11:09:45;;;;;;;;;;;12.40;99.90;;;;;;5036265;28;19992;-73
2023/03/21 11:12:12;;;;;;;;;;;12.50;99.90;;;;;;5036476;28;19915;-73
2023/03/21 11:14:40;;;;;;;;;;;12.50;99.90;;;;;;5036794;28;20353;-73
2023/03/21 11:17:15;;;;;;;;;;;12.60;99.90;;;;;;5036298;28;19920;-73
2023/03/21 11:19:45;;;;;;;;;;;12.70;99.90;;;;;;5036112;28;19913;-73
2023/03/21 11:22:11;;;;;;;;;;;12.70;99.90;;;;;;5036318;28;19909;-73
2023/03/21 11:24:38;;;;;;;;;;;12.80;99.90;;;;;;5035749;28;19921;-73
2023/03/21 11:27:07;;;;;;;;;;;12.80;99.90;;;;;;5035912;28;19913;-73
2023/03/21 11:29:40;;;;;;;;;;;12.90;99.90;;;;;;5036056;28;19913;-73
2023/03/21 11:32:13;;;;;;;;;;;12.90;99.90;;;;;;5036057;28;19909;-73
2023/03/21 11:34:55;;;;;;;;;;;13.10;99.90;;;;;;5035730;28;19912;-73
2023/03/21 11:37:26;;;;;;;;;;;13.20;99.90;;;;;;5035935;28;19967;-73
2023/03/21 11:40:07;;;;;;;;;;;13.20;99.90;;;;;;5035531;28;19932;-73
2023/03/21 11:42:39;;;;;;;;;;;13.30;99.90;;;;;;5017862;28;20016;-73
2023/03/21 11:45:13;;;;;;;;;;;13.40;99.90;;;;;;5035554;28;19909;-73
2023/03/21 11:47:39;;;;;;;;;;;13.50;99.90;;;;;;5035298;28;19909;-73
2023/03/21 11:50:15;;;;;;;;;;;13.70;99.90;;;;;;5035180;28;19915;-73
2023/03/21 11:52:43;;;;;;;;;;;13.80;99.90;;;;;;5035761;28;19916;-73
2023/03/21 11:55:21;;;;;;;;;;;13.90;99.90;;;;;;5035191;28;19910;-73
2023/03/21 11:57:50;;;;;;;;;;;14.00;99.90;;;;;;5035579;28;20007;-73
2023/03/21 12:00:25;;;;;;;;;;;14.00;99.90;;;;;;5035301;28;19916;-73
2023/03/21 12:03:09;;;;;;;;;;;14.20;99.90;;;;;;5035174;28;19913;-73
2023/03/21 12:05:36;;;;;;;;;;;14.20;99.90;;;;;;5035076;28;20281;-73
2023/03/21 12:08:08;;;;;;;;;;;14.30;98.70;;;;;;5035100;28;19952;-73
2023/03/21 12:10:50;;;;;;;;;;;14.40;98.60;;;;;;5034897;28;19910;-73
2023/03/21 12:13:22;;;;;;;;;;;14.50;97.20;;;;;;5035395;28;19909;-73
2023/03/21 12:16:07;;;;;;;;;;;14.50;96.20;;;;;;5035363;28;20285;-73
2023/03/21 12:18:32;;;;;;;;;;;14.60;95.40;;;;;;5034692;28;19959;-73
2023/03/21 12:21:14;;;;;;;;;;;14.70;97.00;;;;;;5034843;28;19909;-73
2023/03/21 12:23:58;;;;;;;;;;;14.70;97.70;;;;;;5034763;28;20390;-73
2023/03/21 12:26:26;;;;;;;;;;;14.70;95.30;;;;;;5034796;28;19909;-73
2023/03/21 12:29:04;;;;;;;;;;;14.70;94.90;;;;;;5034717;28;20395;-73
2023/03/21 12:31:30;;;;;;;;;;;14.70;95.10;;;;;;5035366;28;19909;-73
2023/03/21 12:34:10;;;;;;;;;;;14.70;95.40;;;;;;5034345;28;19944;-73
2023/03/21 12:36:43;;;;;;;;;;;14.80;95.80;;;;;;5034520;28;19913;-73
2023/03/21 12:39:09;;;;;;;;;;;14.90;92.50;;;;;;5034427;28;19974;-73
2023/03/21 12:41:51;;;;;;;;;;;15.00;93.30;;;;;;5034500;28;20380;-73
2023/03/21 12:44:20;;;;;;;;;;;15.10;93.70;;;;;;5034654;28;19909;-73
2023/03/21 12:46:48;;;;;;;;;;;15.20;94.30;;;;;;5033552;28;19971;-73
2023/03/21 12:49:23;;;;;;;;;;;15.30;93.70;;;;;;5034760;28;20008;-73
2023/03/21 12:51:51;;;;;;;;;;;15.30;94.40;;;;;;5034427;28;19991;-73
2023/03/21 12:54:36;;;;;;;;;;;15.50;94.60;;;;;;5034514;28;20361;-73
2023/03/21 12:57:14;;;;;;;;;;;15.60;96.60;;;;;;5034743;28;19963;-73
2023/03/21 12:59:43;;;;;;;;;;;15.80;93.60;;;;;;5034566;28;19917;-73
2023/03/21 13:02:15;;;;;;;;;;;15.90;93.30;;;;;;5033458;28;19940;-73
2023/03/21 13:04:44;;;;;;;;;;;16.00;92.90;;;;;;5016198;28;19936;-73
2023/03/21 13:07:13;;;;;;;;;;;16.00;91.10;;;;;;5034395;28;19914;-73
2023/03/21 13:09:40;;;;;;;;;;;15.90;92.20;;;;;;5034761;28;19909;-73
2023/03/21 13:12:12;;;;;;;;;;;15.90;92.60;;;;;;5034058;28;19909;-73
2023/03/21 13:14:42;;;;;;;;;;;15.90;93.20;;;;;;5033714;28;19979;-73
2023/03/21 13:17:17;;;;;;;;;;;16.00;93.50;;;;;;5016076;28;19920;-73
2023/03/21 13:19:48;;;;;;;;;;;15.90;92.60;;;;;;5033738;28;19963;-73
2023/03/21 13:22:27;;;;;;;;;;;15.90;90.80;;;;;;5034741;28;20308;-73
2023/03/21 13:24:56;;;;;;;;;;;15.90;89.30;;;;;;5033700;28;19985;-73
2023/03/21 13:27:27;;;;;;;;;;;15.90;89.10;;;;;;5033766;28;19916;-73
2023/03/21 13:30:01;;;;;;;;;;;15.90;90.40;;;;;;5033756;28;20011;-73
2023/03/21 13:32:29;;;;;;;;;;;16.00;90.70;;;;;;5015962;28;19997;-73
2023/03/21 13:34:56;;;;;;;;;;;16.00;91.10;;;;;;5033480;28;19917;-73
2023/03/21 13:37:23;;;;;;;;;;;16.10;91.00;;;;;;5015972;28;19913;-73
2023/03/21 13:39:49;;;;;;;;;;;16.20;84.30;;;;;;5033570;28;19916;-73
2023/03/21 13:42:21;;;;;;;;;;;16.10;83.20;;;;;;5033683;28;19914;-73
2023/03/21 13:44:48;;;;;;;;;;;16.10;83.80;;;;;;5033540;28;19909;-73
2023/03/21 13:47:29;;;;;;;;;;;16.10;81.10;;;;;;5024006;28;20278;-73
2023/03/21 13:50:13;;;;;;;;;;;16.20;82.10;;;;;;5014148;28;20317;-74
2023/03/21 13:52:39;;;;;;;;;;;16.30;82.40;;;;;;5014960;28;19917;-74
2023/03/21 13:55:13;;;;;;;;;;;16.40;84.00;;;;;;5014621;28;19914;-74
2023/03/21 13:57:39;;;;;;;;;;;16.50;82.80;;;;;;5015553;28;19921;-75
2023/03/21 14:00:23;;;;;;;;;;;16.50;82.50;;;;;;5014857;28;19914;-75
2023/03/21 14:02:55;;;;;;;;;;;16.50;79.40;;;;;;5033233;28;19959;-74
2023/03/21 14:05:21;;;;;;;;;;;16.50;79.60;;;;;;5034790;28;19913;-74
2023/03/21 14:07:49;;;;;;;;;;;16.40;82.70;;;;;;5033871;28;19909;-74
2023/03/21 14:10:19;;;;;;;;;;;16.40;81.80;;;;;;5033731;28;20324;-74
2023/03/21 14:12:45;;;;;;;;;;;16.40;82.60;;;;;;5034315;28;19917;-74
2023/03/21 14:15:18;;;;;;;;;;;16.40;81.10;;;;;;5037288;28;19924;-74
2023/03/21 14:17:54;;;;;;;;;;;16.40;81.40;;;;;;5036897;28;19917;-74
2023/03/21 14:20:37;;;;;;;;;;;16.50;83.60;;;;;;5036574;28;19909;-75
2023/03/21 14:23:07;;;;;;;;;;;16.50;80.70;;;;;;5037214;28;20008;-75
2023/03/21 14:25:34;;;;;;;;;;;16.50;81.70;;;;;;5019178;28;20262;-75
2023/03/21 14:28:02;;;;;;;;;;;16.60;80.20;;;;;;5036983;28;20306;-75
2023/03/21 14:30:50;;;;;;;;;;;16.60;80.50;;;;;;5080609;22;19964;-80
2023/03/21 14:33:28;;;;;;;;;;;16.70;78.10;;;;;;5058321;28;20368;-79
2023/03/21 14:36:03;;;;;;;;;;;16.90;81.60;;;;;;5058448;28;19909;-79